createdAt,value
2022-10-31T00:00:53.619Z,6.20
2022-10-31T00:03:21.827Z,6.07
2022-10-31T00:05:51.247Z,5.80
2022-10-31T00:08:19.708Z,5.05
2022-10-31T00:10:49.254Z,5.45
2022-10-31T00:13:17.705Z,10.77
2022-10-31T00:15:46.602Z,14.65
2022-10-31T00:18:15.121Z,6.57
2022-10-31T00:20:43.360Z,8.10
2022-10-31T00:23:13.301Z,5.78
2022-10-31T00:25:42.202Z,6.18
2022-10-31T00:28:13.987Z,5.55
2022-10-31T00:30:42.294Z,7.55
2022-10-31T00:33:10.492Z,5.95
2022-10-31T00:35:38.883Z,5.70
2022-10-31T00:38:07.036Z,6.43
2022-10-31T00:40:35.228Z,6.38
2022-10-31T00:43:03.887Z,5.32
2022-10-31T00:45:34.421Z,5.82
2022-10-31T00:48:03.045Z,5.65
2022-10-31T00:50:32.502Z,6.10
2022-10-31T00:53:01.381Z,7.20
2022-10-31T00:55:29.560Z,6.35
2022-10-31T00:57:58.067Z,5.72
2022-10-31T01:00:27.631Z,5.93
2022-10-31T01:02:57.915Z,8.05
2022-10-31T01:05:26.385Z,5.63
2022-10-31T01:07:54.526Z,6.45
2022-10-31T01:10:22.715Z,7.65
2022-10-31T01:12:52.612Z,6.50
2022-10-31T01:15:24.762Z,5.90
2022-10-31T01:17:52.917Z,6.80
2022-10-31T01:20:22.836Z,6.60
2022-10-31T01:22:50.955Z,6.15
2022-10-31T01:25:19.261Z,7.00
2022-10-31T01:27:47.858Z,7.70
2022-10-31T01:30:16.096Z,5.65
2022-10-31T01:32:44.331Z,6.22
2022-10-31T01:35:12.941Z,8.65
2022-10-31T01:37:42.523Z,6.15
2022-10-31T01:40:11.987Z,5.40
2022-10-31T01:42:40.124Z,7.33
2022-10-31T01:45:12.444Z,5.90
2022-10-31T01:47:44.544Z,7.27
2022-10-31T01:50:17.688Z,6.90
2022-10-31T01:52:51.737Z,9.00
2022-10-31T01:55:26.406Z,9.60
2022-10-31T01:57:58.767Z,8.40
2022-10-31T02:00:27.327Z,9.10
2022-10-31T02:02:57.056Z,8.67
2022-10-31T02:05:29.394Z,8.33
2022-10-31T02:08:02.665Z,8.27
2022-10-31T02:10:34.625Z,8.90
2022-10-31T02:13:05.918Z,9.02
2022-10-31T02:15:38.805Z,9.00
2022-10-31T02:18:08.513Z,8.82
2022-10-31T02:20:44.705Z,8.20
2022-10-31T02:23:32.108Z,9.47
2022-10-31T02:26:20.935Z,9.40
2022-10-31T02:29:07.720Z,9.60
2022-10-31T02:31:44.352Z,8.97
2022-10-31T02:34:20.593Z,8.40
2022-10-31T02:36:58.580Z,8.53
2022-10-31T02:39:29.897Z,11.73
2022-10-31T02:42:06.173Z,11.83
2022-10-31T02:44:42.085Z,10.30
2022-10-31T02:47:16.225Z,12.40
2022-10-31T02:49:52.007Z,9.35
2022-10-31T02:52:20.920Z,9.37
2022-10-31T02:54:50.261Z,10.05
2022-10-31T02:57:22.787Z,10.17
2022-10-31T02:59:55.332Z,10.00
2022-10-31T03:02:44.982Z,9.40
2022-10-31T03:05:25.172Z,10.57
2022-10-31T03:08:02.082Z,9.70
2022-10-31T03:10:39.880Z,12.57
2022-10-31T03:13:12.975Z,11.43
2022-10-31T03:15:45.709Z,10.00
2022-10-31T03:18:21.403Z,10.53
2022-10-31T03:20:56.559Z,9.20
2022-10-31T03:23:26.698Z,11.57
2022-10-31T03:25:56.540Z,10.65
2022-10-31T03:28:33.958Z,10.85
2022-10-31T03:31:07.365Z,10.63
2022-10-31T03:33:43.506Z,10.15
2022-10-31T03:36:14.085Z,10.68
2022-10-31T03:38:45.132Z,11.05
2022-10-31T03:41:18.270Z,10.23
2022-10-31T03:43:55.021Z,10.20
2022-10-31T03:46:26.091Z,10.27
2022-10-31T03:48:59.467Z,11.68
2022-10-31T03:51:34.680Z,16.08
2022-10-31T03:54:14.165Z,16.00
2022-10-31T03:56:47.168Z,10.85
2022-10-31T03:59:20.075Z,11.98
2022-10-31T04:01:53.770Z,11.13
2022-10-31T04:04:24.088Z,12.68
2022-10-31T04:06:54.522Z,11.93
2022-10-31T04:09:23.758Z,10.70
2022-10-31T04:11:55.274Z,10.70
2022-10-31T04:14:47.890Z,11.73
2022-10-31T04:17:18.551Z,13.35
2022-10-31T04:19:48.349Z,12.65
2022-10-31T04:22:16.557Z,10.30
2022-10-31T04:24:45.314Z,11.65
2022-10-31T04:27:16.334Z,11.00
2022-10-31T04:29:46.931Z,11.15
2022-10-31T04:32:18.644Z,10.25
2022-10-31T04:34:48.167Z,16.08
2022-10-31T04:37:16.332Z,11.23
2022-10-31T04:39:44.471Z,11.95
2022-10-31T04:42:31.992Z,11.60
2022-10-31T04:45:03.524Z,10.82
2022-10-31T04:47:34.138Z,12.60
2022-10-31T04:50:05.253Z,11.60
2022-10-31T04:52:35.131Z,13.02
2022-10-31T04:55:04.050Z,11.52
2022-10-31T04:57:52.660Z,13.63
2022-10-31T05:00:23.530Z,11.98
2022-10-31T05:02:54.345Z,11.73
2022-10-31T05:05:26.114Z,11.55
2022-10-31T05:07:54.998Z,12.50
2022-10-31T05:10:27.575Z,14.75
2022-10-31T05:12:59.540Z,17.08
2022-10-31T05:15:46.948Z,14.98
2022-10-31T05:18:33.762Z,15.10
2022-10-31T05:21:21.700Z,14.73
2022-10-31T05:23:53.569Z,15.82
2022-10-31T05:26:24.118Z,16.73
2022-10-31T05:28:52.870Z,14.30
2022-10-31T05:31:21.468Z,14.60
2022-10-31T05:33:51.329Z,19.27
2022-10-31T05:36:39.248Z,18.35
2022-10-31T05:39:27.625Z,15.35
2022-10-31T05:42:00.650Z,17.20
2022-10-31T05:44:28.953Z,24.65
2022-10-31T05:47:20.004Z,15.82
2022-10-31T05:49:57.032Z,17.58
2022-10-31T05:52:26.590Z,16.00
2022-10-31T05:55:02.456Z,16.73
2022-10-31T05:57:31.536Z,15.40
2022-10-31T06:00:00.166Z,17.17
2022-10-31T06:02:33.198Z,19.10
2022-10-31T06:05:23.383Z,19.70
2022-10-31T06:07:53.507Z,17.10
2022-10-31T06:10:22.388Z,16.23
2022-10-31T06:12:54.523Z,19.65
2022-10-31T06:15:30.728Z,18.65
2022-10-31T06:18:01.781Z,14.43
2022-10-31T06:20:32.503Z,16.15
2022-10-31T06:23:06.280Z,21.27
2022-10-31T06:25:35.972Z,16.37
2022-10-31T06:28:06.441Z,19.17
2022-10-31T06:30:50.498Z,16.20
2022-10-31T06:33:19.016Z,15.53
2022-10-31T06:35:57.085Z,15.77
2022-10-31T06:38:27.565Z,14.97
2022-10-31T06:40:56.559Z,15.93
2022-10-31T06:43:27.895Z,18.90
2022-10-31T06:46:25.615Z,15.03
2022-10-31T06:49:23.248Z,16.70
2022-10-31T06:51:55.415Z,16.20
2022-10-31T06:54:25.112Z,17.60
2022-10-31T06:56:53.646Z,16.40
2022-10-31T06:59:22.109Z,18.63
2022-10-31T07:02:16.275Z,17.53
2022-10-31T07:04:45.229Z,14.60
2022-10-31T07:07:17.529Z,14.30
2022-10-31T07:09:48.284Z,15.07
2022-10-31T07:12:18.862Z,14.80
2022-10-31T07:14:56.101Z,21.93
2022-10-31T07:17:29.676Z,15.03
2022-10-31T07:20:00.726Z,14.40
2022-10-31T07:22:34.748Z,18.03
2022-10-31T07:25:04.605Z,18.40
2022-10-31T07:27:51.677Z,15.50
2022-10-31T07:30:21.010Z,19.47
2022-10-31T07:32:52.905Z,15.77
2022-10-31T07:35:23.562Z,16.10
2022-10-31T07:37:59.338Z,16.37
2022-10-31T07:40:29.222Z,17.63
2022-10-31T07:43:00.095Z,16.90
2022-10-31T07:46:07.040Z,17.03
2022-10-31T07:48:38.168Z,19.13
2022-10-31T07:51:25.380Z,16.83
2022-10-31T07:54:12.197Z,24.07
2022-10-31T07:56:41.735Z,19.63
2022-10-31T07:59:11.109Z,18.73
2022-10-31T08:01:39.281Z,18.63
2022-10-31T08:04:27.388Z,20.03
2022-10-31T08:07:13.924Z,21.30
2022-10-31T08:09:47.097Z,21.50
2022-10-31T08:12:26.972Z,18.20
2022-10-31T08:14:55.657Z,18.80
2022-10-31T08:17:23.850Z,19.10
2022-10-31T08:20:00.902Z,22.10
2022-10-31T08:22:42.839Z,17.33
2022-10-31T08:25:12.174Z,17.97
2022-10-31T08:27:42.233Z,17.10
2022-10-31T08:30:18.089Z,17.60
2022-10-31T08:33:01.441Z,16.60
2022-10-31T08:35:48.630Z,15.90
2022-10-31T08:38:42.586Z,17.60
2022-10-31T08:41:14.157Z,18.23
2022-10-31T08:43:43.761Z,17.10
2022-10-31T08:46:12.918Z,14.83
2022-10-31T08:48:42.705Z,16.73
2022-10-31T08:51:12.544Z,15.17
2022-10-31T08:53:40.694Z,15.83
2022-10-31T08:56:31.662Z,15.80
2022-10-31T08:59:02.709Z,17.13
2022-10-31T09:01:47.418Z,14.97
2022-10-31T09:04:16.362Z,17.70
2022-10-31T09:07:07.931Z,15.47
2022-10-31T09:09:32.713Z,15.50
2022-10-31T09:12:01.404Z,22.80
2022-10-31T09:14:49.299Z,16.20
2022-10-31T09:17:27.734Z,16.00
2022-10-31T09:20:20.491Z,15.30
2022-10-31T09:22:49.591Z,14.47
2022-10-31T09:25:17.964Z,13.27
2022-10-31T09:27:52.287Z,14.27
2022-10-31T09:30:21.915Z,13.73
2022-10-31T09:32:56.530Z,12.70
2022-10-31T09:35:25.869Z,12.87
2022-10-31T09:37:57.670Z,16.90
2022-10-31T09:40:33.217Z,12.80
2022-10-31T09:43:09.473Z,15.13
2022-10-31T09:45:46.380Z,10.77
2022-10-31T09:48:38.164Z,12.67
2022-10-31T09:51:25.432Z,11.80
2022-10-31T09:54:07.414Z,10.43
2022-10-31T09:56:36.485Z,13.27
2022-10-31T09:59:17.535Z,10.57
2022-10-31T10:01:54.979Z,9.40
2022-10-31T10:04:35.578Z,12.13
2022-10-31T10:07:32.522Z,10.50
2022-10-31T10:10:30.492Z,12.27
2022-10-31T10:13:35.146Z,10.90
2022-10-31T10:16:14.238Z,10.40
2022-10-31T10:19:01.571Z,10.27
2022-10-31T10:21:39.728Z,9.50
2022-10-31T10:24:23.138Z,9.60
2022-10-31T10:26:58.176Z,8.20
2022-10-31T10:29:35.936Z,8.27
2022-10-31T10:32:12.660Z,9.47
2022-10-31T10:34:49.176Z,8.90
2022-10-31T10:37:26.308Z,8.70
2022-10-31T10:39:58.830Z,8.33
2022-10-31T10:42:46.799Z,7.87
2022-10-31T10:45:37.689Z,7.87
2022-10-31T10:48:12.690Z,8.00
2022-10-31T10:50:48.834Z,7.60
2022-10-31T10:53:36.358Z,7.97
2022-10-31T10:56:17.482Z,8.53
2022-10-31T10:58:46.382Z,7.20
2022-10-31T11:03:49.362Z,8.70
2022-10-31T11:06:26.798Z,9.13
2022-10-31T11:08:55.496Z,5.57
2022-10-31T11:11:30.674Z,9.20
2022-10-31T11:14:04.095Z,5.90
2022-10-31T11:16:40.637Z,7.23
2022-10-31T11:19:16.846Z,7.83
2022-10-31T11:21:52.900Z,6.10
2022-10-31T11:24:26.272Z,6.43
2022-10-31T11:27:13.637Z,5.57
2022-10-31T11:29:41.775Z,5.73
2022-10-31T11:32:23.333Z,5.10
2022-10-31T11:34:55.951Z,5.77
2022-10-31T11:37:27.989Z,7.07
2022-10-31T11:39:58.173Z,6.00
2022-10-31T11:42:29.739Z,7.33
2022-10-31T11:44:58.845Z,4.50
2022-10-31T11:47:29.936Z,6.50
2022-10-31T11:49:59.600Z,4.40
2022-10-31T11:52:32.660Z,4.83
2022-10-31T11:55:03.356Z,9.17
2022-10-31T11:57:33.679Z,6.73
2022-10-31T12:00:04.551Z,5.03
2022-10-31T12:02:40.468Z,4.73
2022-10-31T12:05:12.989Z,4.23
2022-10-31T12:07:42.699Z,4.63
2022-10-31T12:10:13.927Z,5.00
2022-10-31T12:12:53.114Z,4.87
2022-10-31T12:15:40.784Z,4.83
2022-10-31T12:18:39.783Z,5.07
2022-10-31T12:21:23.453Z,5.83
2022-10-31T12:24:02.065Z,4.90
2022-10-31T12:26:39.553Z,5.57
2022-10-31T12:29:20.774Z,5.10
2022-10-31T12:32:00.618Z,5.67
2022-10-31T12:34:49.516Z,5.50
2022-10-31T12:37:29.954Z,5.47
2022-10-31T12:40:17.781Z,5.60
2022-10-31T12:42:58.971Z,6.70
2022-10-31T12:45:41.320Z,10.67
2022-10-31T12:48:38.664Z,5.13
2022-10-31T12:51:16.042Z,5.57
2022-10-31T12:54:01.501Z,6.27
2022-10-31T12:56:42.212Z,6.07
2022-10-31T12:59:19.310Z,6.67
2022-10-31T13:01:51.784Z,6.60
2022-10-31T13:04:28.438Z,5.60
2022-10-31T13:07:01.717Z,5.67
2022-10-31T13:09:36.821Z,5.13
2022-10-31T13:12:10.777Z,6.50
2022-10-31T13:14:42.871Z,5.70
2022-10-31T13:17:18.594Z,5.60
2022-10-31T13:19:48.994Z,4.83
2022-10-31T13:22:21.413Z,5.27
2022-10-31T13:24:58.016Z,5.37
2022-10-31T13:27:33.027Z,6.67
2022-10-31T13:30:04.741Z,7.73
2022-10-31T13:32:41.906Z,6.20
2022-10-31T13:35:16.993Z,5.07
2022-10-31T13:37:54.867Z,4.73
2022-10-31T13:40:34.786Z,5.87
2022-10-31T13:43:12.657Z,6.40
2022-10-31T13:45:50.825Z,5.63
2022-10-31T13:48:40.024Z,7.07
2022-10-31T13:51:10.590Z,5.17
2022-10-31T13:53:41.568Z,5.47
2022-10-31T13:56:24.612Z,6.73
2022-10-31T13:59:22.989Z,5.40
2022-10-31T14:01:55.468Z,4.90
2022-10-31T14:04:26.468Z,5.10
2022-10-31T14:07:08.957Z,6.17
2022-10-31T14:09:40.935Z,4.90
2022-10-31T14:12:13.416Z,4.60
2022-10-31T14:14:49.119Z,6.30
2022-10-31T14:17:23.691Z,6.17
2022-10-31T14:20:02.052Z,6.40
2022-10-31T14:22:37.404Z,7.43
2022-10-31T14:25:27.981Z,7.70
2022-10-31T14:27:56.685Z,5.50
2022-10-31T14:30:28.561Z,4.37
2022-10-31T14:33:01.599Z,6.30
2022-10-31T14:35:45.501Z,4.80
2022-10-31T14:38:53.418Z,6.23
2022-10-31T14:41:36.626Z,8.20
2022-10-31T14:44:27.186Z,6.67
2022-10-31T14:47:04.496Z,7.33
2022-10-31T14:49:52.577Z,7.07
2022-10-31T14:52:22.197Z,8.60
2022-10-31T14:54:54.564Z,8.80
2022-10-31T14:57:28.002Z,7.13
2022-10-31T15:00:02.635Z,6.13
2022-10-31T15:02:37.771Z,7.60
2022-10-31T15:05:09.927Z,7.40
2022-10-31T15:07:41.017Z,7.23
2022-10-31T15:10:23.307Z,8.70
2022-10-31T15:12:51.490Z,7.93
2022-10-31T15:15:25.449Z,10.70
2022-10-31T15:17:58.749Z,9.10
2022-10-31T15:20:29.700Z,7.20
2022-10-31T15:22:59.479Z,12.57
2022-10-31T15:25:32.437Z,7.30
2022-10-31T15:28:00.951Z,9.17
2022-10-31T15:30:31.220Z,11.90
2022-10-31T15:33:00.734Z,8.10
2022-10-31T15:35:30.786Z,6.83
2022-10-31T15:38:00.544Z,6.73
2022-10-31T15:40:29.986Z,12.13
2022-10-31T15:43:01.351Z,17.07
2022-10-31T15:45:31.320Z,11.33
2022-10-31T15:48:04.017Z,9.30
2022-10-31T15:50:34.935Z,13.90
2022-10-31T15:53:04.464Z,10.83
2022-10-31T15:55:38.707Z,9.70
2022-10-31T15:58:17.788Z,12.23
2022-10-31T16:00:46.254Z,15.97
2022-10-31T16:03:27.605Z,20.50
2022-10-31T16:05:57.244Z,17.67
2022-10-31T16:08:28.405Z,18.90
2022-10-31T16:10:57.560Z,15.30
2022-10-31T16:13:29.062Z,12.70
2022-10-31T16:16:28.953Z,17.73
2022-10-31T16:18:52.493Z,20.80
2022-10-31T16:21:27.536Z,17.70
2022-10-31T16:24:05.773Z,33.27
2022-10-31T16:26:35.073Z,21.13
2022-10-31T16:29:05.425Z,17.63
2022-10-31T16:31:39.628Z,20.57
2022-10-31T16:34:22.360Z,24.73
2022-10-31T16:36:53.515Z,20.93
2022-10-31T16:39:21.792Z,20.20
2022-10-31T16:41:52.750Z,16.60
2022-10-31T16:44:23.911Z,21.53
2022-10-31T16:47:10.449Z,18.33
2022-10-31T16:49:40.002Z,17.33
2022-10-31T16:52:08.437Z,17.13
2022-10-31T16:54:36.881Z,18.10
2022-10-31T16:57:07.398Z,17.07
2022-10-31T16:59:36.334Z,18.80
2022-10-31T17:02:05.913Z,18.33
2022-10-31T17:07:03.914Z,16.60
2022-10-31T17:09:32.417Z,16.10
2022-10-31T17:12:01.254Z,23.53
2022-10-31T17:14:29.926Z,21.43
2022-10-31T17:16:58.024Z,18.20
2022-10-31T17:19:26.177Z,25.93
2022-10-31T17:21:54.386Z,29.03
2022-10-31T17:24:23.881Z,27.40
2022-10-31T17:26:52.021Z,28.70
2022-10-31T17:29:20.155Z,34.70
2022-10-31T17:31:49.353Z,35.07
2022-10-31T17:34:19.109Z,37.40
2022-10-31T17:36:52.104Z,31.93
2022-10-31T17:39:20.590Z,30.00
2022-10-31T17:41:53.418Z,30.00
2022-10-31T17:44:21.599Z,24.23
2022-10-31T17:46:50.358Z,25.17
2022-10-31T17:49:18.584Z,30.17
2022-10-31T17:51:46.738Z,35.50
2022-10-31T17:54:18.444Z,33.13
2022-10-31T17:56:46.631Z,35.43
2022-10-31T17:59:16.284Z,36.93
2022-10-31T18:01:44.552Z,37.53
2022-10-31T18:04:12.768Z,31.07
2022-10-31T18:06:40.939Z,31.30
2022-10-31T18:09:09.315Z,31.50
2022-10-31T18:11:37.510Z,34.77
2022-10-31T18:14:05.859Z,32.43
2022-10-31T18:19:05.984Z,31.97
2022-10-31T18:21:34.174Z,28.73
2022-10-31T18:24:03.177Z,20.17
2022-10-31T18:26:31.337Z,20.20
2022-10-31T18:28:59.509Z,24.33
2022-10-31T18:31:27.990Z,27.73
2022-10-31T18:33:58.349Z,26.80
2022-10-31T18:36:26.543Z,33.60
2022-10-31T18:38:54.844Z,25.97
2022-10-31T18:41:22.997Z,26.40
2022-10-31T18:43:52.157Z,49.03
2022-10-31T18:46:21.208Z,34.57
2022-10-31T18:48:49.382Z,35.77
2022-10-31T18:51:19.173Z,32.30
2022-10-31T18:53:52.096Z,27.00
2022-10-31T18:56:21.087Z,24.43
2022-10-31T18:58:49.546Z,24.77
2022-10-31T19:01:18.661Z,16.20
2022-10-31T19:03:47.086Z,20.00
2022-10-31T19:06:15.225Z,19.77
2022-10-31T19:08:44.713Z,25.60
2022-10-31T19:11:14.501Z,38.00
2022-10-31T19:13:43.916Z,18.00
2022-10-31T19:16:14.342Z,21.53
2022-10-31T19:18:43.501Z,19.20
2022-10-31T19:21:15.234Z,16.47
2022-10-31T19:23:45.831Z,14.03
2022-10-31T19:26:14.907Z,16.30
2022-10-31T19:28:43.561Z,15.97
2022-10-31T19:31:12.380Z,19.23
2022-10-31T19:33:40.824Z,19.87
2022-10-31T19:36:11.061Z,22.13
2022-10-31T19:38:40.669Z,47.60
2022-10-31T19:41:12.319Z,39.20
2022-10-31T19:43:40.608Z,85.07
2022-10-31T19:46:17.432Z,184.73
2022-10-31T19:48:57.225Z,47.97
2022-10-31T19:51:25.471Z,20.50
2022-10-31T19:53:54.720Z,26.65
2022-10-31T19:56:26.019Z,71.30
2022-10-31T19:58:54.419Z,65.00
2022-10-31T20:01:24.489Z,33.17
2022-10-31T20:03:52.922Z,22.57
2022-10-31T20:06:24.540Z,25.37
2022-10-31T20:08:53.437Z,23.33
2022-10-31T20:11:21.791Z,26.60
2022-10-31T20:13:51.335Z,31.00
2022-10-31T20:16:19.670Z,49.10
2022-10-31T20:18:48.058Z,36.60
2022-10-31T20:21:18.594Z,45.40
2022-10-31T20:23:47.661Z,44.57
2022-10-31T20:26:17.655Z,32.93
2022-10-31T20:28:46.570Z,26.03
2022-10-31T20:31:19.822Z,22.73
2022-10-31T20:33:48.744Z,27.10
2022-10-31T20:36:19.484Z,27.10
2022-10-31T20:38:48.689Z,27.00
2022-10-31T20:41:17.654Z,31.00
2022-10-31T20:43:46.439Z,26.37
2022-10-31T20:46:17.904Z,24.70
2022-10-31T20:48:46.523Z,27.10
2022-10-31T20:53:49.934Z,23.47
2022-10-31T20:56:19.431Z,31.57
2022-10-31T20:58:48.382Z,23.60
2022-10-31T21:01:20.288Z,23.30
2022-10-31T21:03:49.401Z,23.90
2022-10-31T21:06:18.538Z,23.27
2022-10-31T21:08:47.417Z,26.57
2022-10-31T21:11:17.433Z,27.53
2022-10-31T21:13:46.708Z,28.63
2022-10-31T21:16:18.263Z,41.60
2022-10-31T21:18:47.404Z,33.37
2022-10-31T21:21:18.120Z,37.27
2022-10-31T21:23:46.962Z,39.90
2022-10-31T21:26:17.141Z,36.17
2022-10-31T21:28:45.311Z,27.90
2022-10-31T21:31:18.310Z,28.90
2022-10-31T21:33:47.353Z,34.90
2022-10-31T21:36:15.877Z,25.20
2022-10-31T21:38:44.167Z,24.08
2022-10-31T21:41:14.143Z,28.77
2022-10-31T21:43:44.076Z,30.93
2022-10-31T21:46:14.987Z,32.77
2022-10-31T21:48:45.195Z,31.30
2022-10-31T21:51:15.019Z,36.72
2022-10-31T21:54:01.255Z,42.60
2022-10-31T21:56:29.510Z,42.22
2022-10-31T21:58:57.804Z,37.90
2022-10-31T22:01:27.454Z,35.92
2022-10-31T22:03:57.394Z,37.67
2022-10-31T22:06:27.004Z,35.95
2022-10-31T22:08:55.938Z,36.97
2022-10-31T22:11:24.083Z,33.25
2022-10-31T22:13:52.486Z,33.13
2022-10-31T22:16:22.375Z,29.50
2022-10-31T22:18:54.265Z,25.45
2022-10-31T22:21:26.600Z,24.65
2022-10-31T22:23:55.940Z,31.70
2022-10-31T22:26:24.888Z,29.88
2022-10-31T22:28:55.961Z,28.40
2022-10-31T22:31:25.467Z,32.72
2022-10-31T22:33:54.215Z,25.70
2022-10-31T22:36:25.434Z,33.45
2022-10-31T22:38:53.660Z,26.92
2022-10-31T22:41:24.108Z,25.65
2022-10-31T22:43:52.687Z,26.33
2022-10-31T22:46:22.421Z,31.52
2022-10-31T22:48:53.456Z,22.55
2022-10-31T22:51:25.201Z,26.67
2022-10-31T22:53:56.570Z,31.25
2022-10-31T22:56:26.465Z,22.65
2022-10-31T22:58:54.733Z,22.95
2022-10-31T23:01:25.967Z,20.00
2022-10-31T23:03:54.732Z,19.77
2022-10-31T23:06:26.348Z,19.83
2022-10-31T23:08:55.210Z,19.00
2022-10-31T23:11:25.787Z,16.50
2022-10-31T23:14:10.877Z,18.92
2022-10-31T23:16:43.847Z,23.13
2022-10-31T23:19:13.656Z,23.88
2022-10-31T23:21:54.726Z,23.10
2022-10-31T23:24:24.833Z,19.95
2022-10-31T23:27:12.476Z,26.77
2022-10-31T23:29:46.124Z,29.20
2022-10-31T23:32:20.555Z,23.67
2022-10-31T23:34:50.277Z,47.75
2022-10-31T23:37:21.296Z,27.25
2022-10-31T23:39:49.497Z,28.88
2022-10-31T23:42:18.743Z,27.27
2022-10-31T23:44:47.408Z,21.48
2022-10-31T23:47:16.039Z,22.27
2022-10-31T23:49:44.493Z,23.90
2022-10-31T23:52:13.645Z,22.48
2022-10-31T23:54:43.268Z,21.45
2022-10-31T23:57:12.223Z,22.38
2022-10-31T23:59:40.413Z,21.58
